createdAt,value
2023-03-23T15:58:43.252Z,11.48
2023-03-23T16:01:17.376Z,11.46
2023-03-23T16:03:53.679Z,11.48
2023-03-23T16:06:25.143Z,11.41
2023-03-23T16:08:55.497Z,11.35
2023-03-23T16:11:26.393Z,11.31
2023-03-23T16:13:55.268Z,11.42
2023-03-23T16:16:33.830Z,11.33
2023-03-23T16:19:01.647Z,11.35
2023-03-23T16:21:29.166Z,11.41
2023-03-23T16:23:57.408Z,11.31
2023-03-23T16:26:25.556Z,11.31
2023-03-23T16:28:57.396Z,11.30
2023-03-23T16:31:30.506Z,11.44
2023-03-23T16:33:58.068Z,11.31
2023-03-23T16:36:25.602Z,11.25
2023-03-23T16:38:54.793Z,11.23
2023-03-23T16:41:22.642Z,11.19
2023-03-23T16:43:50.358Z,11.17
2023-03-23T16:46:18.281Z,11.13
2023-03-23T16:48:45.808Z,11.07
2023-03-23T16:51:13.278Z,11.09
2023-03-23T16:53:40.988Z,11.05
2023-03-23T16:56:08.914Z,10.99
2023-03-23T16:58:36.578Z,10.98
2023-03-23T17:01:04.283Z,10.91
2023-03-23T17:03:31.936Z,10.85
2023-03-23T17:06:01.721Z,10.82
2023-03-23T17:08:29.572Z,10.80
2023-03-23T17:10:59.207Z,10.77
2023-03-23T17:13:28.447Z,10.85
2023-03-23T17:15:57.443Z,10.74
2023-03-23T17:18:25.567Z,10.71
2023-03-23T17:20:54.143Z,10.65
2023-03-23T17:23:22.210Z,10.63
2023-03-23T17:25:50.522Z,10.58
2023-03-23T17:28:19.685Z,10.56
2023-03-23T17:30:48.632Z,10.56
2023-03-23T17:33:16.307Z,10.59
2023-03-23T17:35:46.999Z,10.61
2023-03-23T17:38:15.009Z,10.56
2023-03-23T17:40:42.556Z,10.64
2023-03-23T17:43:10.269Z,10.56
2023-03-23T17:45:37.955Z,10.55
2023-03-23T17:48:08.158Z,10.56
2023-03-23T17:50:36.642Z,10.55
2023-03-23T17:53:04.860Z,10.54
2023-03-23T17:55:32.578Z,10.51
2023-03-23T17:58:00.352Z,10.50
2023-03-23T18:00:27.909Z,10.55
2023-03-23T18:02:56.589Z,10.64
2023-03-23T18:05:24.737Z,10.63
2023-03-23T18:07:52.349Z,10.64
2023-03-23T18:10:20.567Z,10.65
2023-03-23T18:12:50.896Z,10.58
2023-03-23T18:15:18.495Z,10.58
2023-03-23T18:17:48.380Z,10.55
2023-03-23T18:20:18.407Z,10.52
2023-03-23T18:22:45.970Z,10.49
2023-03-23T18:25:13.982Z,10.51
2023-03-23T18:27:41.885Z,10.47
2023-03-23T18:30:10.740Z,10.50
2023-03-23T18:32:40.129Z,10.56
2023-03-23T18:35:10.865Z,10.52
2023-03-23T18:37:43.077Z,10.48
2023-03-23T18:40:11.542Z,10.51
2023-03-23T18:42:41.633Z,10.41
2023-03-23T18:45:09.725Z,10.40
2023-03-23T18:47:38.742Z,10.43
2023-03-23T18:50:11.126Z,10.47
2023-03-23T18:52:40.561Z,10.39
2023-03-23T18:55:09.387Z,10.35
2023-03-23T18:57:40.295Z,10.29
2023-03-23T19:00:08.895Z,10.30
2023-03-23T19:02:39.566Z,10.30
2023-03-23T19:05:09.321Z,10.29
2023-03-23T19:07:38.416Z,10.31
2023-03-23T19:10:06.389Z,10.24
2023-03-23T19:12:33.821Z,10.16
2023-03-23T19:15:01.430Z,10.19
2023-03-23T19:17:30.497Z,10.18
2023-03-23T19:19:58.328Z,10.15
2023-03-23T19:22:25.996Z,10.22
2023-03-23T19:24:53.563Z,10.19
2023-03-23T19:27:21.435Z,10.18
2023-03-23T19:29:49.482Z,10.16
2023-03-23T19:32:17.208Z,10.18
2023-03-23T19:34:49.311Z,10.18
2023-03-23T19:37:18.841Z,10.17
2023-03-23T19:39:46.358Z,10.10
2023-03-23T19:42:16.937Z,10.12
2023-03-23T19:44:44.844Z,10.14
2023-03-23T19:47:12.980Z,10.17
2023-03-23T19:49:40.992Z,10.20
2023-03-23T19:52:12.530Z,10.20
2023-03-23T19:54:41.659Z,10.22
2023-03-23T19:57:10.606Z,10.22
2023-03-23T19:59:39.048Z,10.21
2023-03-23T20:02:07.180Z,10.24
2023-03-23T20:04:35.441Z,10.26
2023-03-23T20:07:05.923Z,10.19
2023-03-23T20:09:35.319Z,10.16
2023-03-23T20:12:04.819Z,10.19
2023-03-23T20:14:33.389Z,10.22
2023-03-23T20:17:01.750Z,10.19
2023-03-23T20:19:29.238Z,10.14
2023-03-23T20:21:56.704Z,10.18
2023-03-23T20:24:24.219Z,10.16
2023-03-23T20:26:51.778Z,10.19
2023-03-23T20:29:19.267Z,10.20
2023-03-23T20:31:46.896Z,10.18
2023-03-23T20:34:30.606Z,10.17
2023-03-23T20:36:59.917Z,10.18
2023-03-23T20:39:30.984Z,10.17
2023-03-23T20:42:03.459Z,10.18
2023-03-23T20:44:34.882Z,10.20
2023-03-23T20:47:03.956Z,10.14
2023-03-23T20:49:32.089Z,10.15
2023-03-23T20:51:59.999Z,10.02
2023-03-23T20:54:28.064Z,10.06
2023-03-23T20:56:57.762Z,10.02
2023-03-23T20:59:25.828Z,10.07
2023-03-23T21:01:53.997Z,9.93
2023-03-23T21:04:27.340Z,10.00
2023-03-23T21:06:55.985Z,9.98
2023-03-23T21:09:25.417Z,9.91
2023-03-23T21:11:53.834Z,9.86
2023-03-23T21:14:21.591Z,9.86
2023-03-23T21:16:50.672Z,9.88
2023-03-23T21:19:19.913Z,9.85
2023-03-23T21:21:55.805Z,9.83
2023-03-23T21:24:28.499Z,9.79
2023-03-23T21:26:58.914Z,9.80
2023-03-23T21:29:28.068Z,9.80
2023-03-23T21:34:27.919Z,9.77
2023-03-23T21:36:55.574Z,9.74
2023-03-23T21:39:23.696Z,9.74
2023-03-23T21:41:51.152Z,9.74
2023-03-23T21:44:18.836Z,9.73
2023-03-23T21:46:46.382Z,9.79
2023-03-23T21:49:14.501Z,9.81
2023-03-23T21:51:43.142Z,9.79
2023-03-23T21:54:11.803Z,9.75
2023-03-23T21:56:40.303Z,9.78
2023-03-23T21:59:07.952Z,9.84
2023-03-23T22:01:37.851Z,9.71
2023-03-23T22:04:09.039Z,9.78
2023-03-23T22:06:37.319Z,9.72
2023-03-23T22:09:05.554Z,9.75
2023-03-23T22:11:34.116Z,9.66
2023-03-23T22:14:01.961Z,9.67
2023-03-23T22:16:29.980Z,9.68
2023-03-23T22:19:00.213Z,9.69
2023-03-23T22:21:28.935Z,9.60
2023-03-23T22:23:58.413Z,9.61
2023-03-23T22:26:27.835Z,9.61
2023-03-23T22:28:56.359Z,9.57
2023-03-23T22:31:27.761Z,9.56
2023-03-23T22:33:56.987Z,9.54
2023-03-23T22:36:26.362Z,9.50
2023-03-23T22:38:55.708Z,9.52
2023-03-23T22:41:29.195Z,9.53
2023-03-23T22:43:56.770Z,9.43
2023-03-23T22:46:25.297Z,9.47
2023-03-23T22:48:53.332Z,9.52
2023-03-23T22:51:21.630Z,9.43
2023-03-23T22:53:50.012Z,9.45
2023-03-23T22:56:19.063Z,9.39
2023-03-23T22:58:46.830Z,9.45
2023-03-23T23:01:21.925Z,9.43
2023-03-23T23:03:50.138Z,9.44
2023-03-23T23:06:18.975Z,9.40
2023-03-23T23:08:47.417Z,9.43
2023-03-23T23:11:17.483Z,9.48
2023-03-23T23:13:45.831Z,9.45
2023-03-23T23:16:17.375Z,9.44
2023-03-23T23:18:47.627Z,9.41
2023-03-23T23:21:18.324Z,9.42
2023-03-23T23:23:46.648Z,9.49
2023-03-23T23:26:16.167Z,9.49
2023-03-23T23:28:44.614Z,9.48
2023-03-23T23:31:29.949Z,9.56
2023-03-23T23:33:59.613Z,9.53
2023-03-23T23:36:30.453Z,9.52
2023-03-23T23:39:00.339Z,9.54
2023-03-23T23:41:30.907Z,9.55
2023-03-23T23:43:59.601Z,9.56
2023-03-23T23:46:28.888Z,9.66
2023-03-23T23:48:57.593Z,9.61
2023-03-23T23:51:27.580Z,9.57
2023-03-23T23:53:59.190Z,9.55
2023-03-23T23:56:27.320Z,9.51
2023-03-23T23:58:54.964Z,9.48
